Latest Weather Observations for Maroochydore

IDQ60801

Issued at 3:02 pm EST Saturday 28 February 2015 (issued every 30 minutes, with the page automatically refreshed every 10 minutes)

About weather observations | Map of weather stations | Latest weather observations for QLD | Other Formats
Station Details ID: 040861 Name: SUNSHINE COAST AIRPORT Lat: -26.60 Lon: 153.09 Height: 3.3 m
Data from the previous 72 hours. | See also: Recent months at Maroochydore
Date/Time
EST
Temp
°C
App
Temp
°C
Dew
Point
Rel
Hum
%
Delta-T
°C
Wind Press
QNH
hPa
Press
MSL
hPa
Rain
since 9 am
mm
Dir
 
Spd
km/h
Gust
km/h
Spd
kts
Gust
kts
28/02:30pm 29.3 30.4 22.0 64 4.9 ENE 19 22 10 12 1009.1 - 0.0
28/01:30pm 28.0 28.4 20.6 64 4.9 E 19 24 10 13 1009.6 - 0.0
28/01:00pm 28.6 29.5 21.6 66 4.7 ENE 19 22 10 12 1009.9 - 0.0
28/12:30pm 29.2 30.5 22.4 66 4.6 ENE 19 24 10 13 1010.1 - 0.0
28/12:00pm 28.4 29.2 20.7 63 5.1 E 17 22 9 12 1010.3 1010.3 0.0
28/11:30am 28.6 29.6 21.1 64 5.0 E 17 20 9 11 1010.5 - 0.0
28/11:00am 28.2 28.7 20.0 61 5.4 E 17 20 9 11 1010.7 - 0.0
28/10:00am 28.0 29.5 20.6 64 4.9 E 13 19 7 10 1011.2 - 0.0
28/09:30am 28.2 30.3 21.0 65 4.8 E 11 15 6 8 1011.0 - 0.0
28/09:00am 28.4 31.0 21.2 65 4.8 E 9 13 5 7 1011.0 1011.0 0.0
28/08:00am 25.8 28.7 21.0 75 3.2 WSW 7 11 4 6 1010.9 - 0.0
28/07:30am 24.2 27.2 21.3 84 1.9 WSW 7 9 4 5 1010.6 - 0.0
28/06:30am 21.3 23.8 20.3 94 0.6 W 7 9 4 5 1010.1 - 0.0
28/05:30am 20.7 22.9 19.7 94 0.6 WSW 7 9 4 5 1009.4 - 0.0
28/05:00am 20.6 23.3 19.4 93 0.8 WSW 4 6 2 3 1009.2 - 0.0
28/04:30am 20.8 24.4 19.8 94 0.6 CALM 0 0 0 0 1009.0 - 0.0
28/04:00am 20.7 24.2 19.5 93 0.8 CALM 0 0 0 0 1008.8 - 0.0
28/03:30am 21.1 24.8 19.9 93 0.8 CALM 0 0 0 0 1009.2 - 0.0
28/03:00am 21.1 24.8 19.9 93 0.8 CALM 0 0 0 0 1009.1 1009.1 0.0
28/02:30am 21.3 25.2 20.3 94 0.6 CALM 0 0 0 0 1009.3 - 0.0
28/02:00am 21.0 24.5 19.6 92 0.9 CALM 0 0 0 0 1009.3 - 0.0
28/01:30am 21.3 25.1 20.1 93 0.8 CALM 0 0 0 0 1009.5 - 0.0
28/12:30am 21.5 25.3 20.1 92 0.9 CALM 0 0 0 0 1009.6 - 0.0
 
Date/Time
EST
Temp
°C
App
Temp
°C
Dew
Point
Rel
Hum
%
Delta-T
°C
Wind Press
QNH
hPa
Press
MSL
hPa
Rain
since 9 am
mm
Dir
 
Spd
km/h
Gust
km/h
Spd
kts
Gust
kts
27/11:30pm 22.2 26.0 20.1 88 1.4 CALM 0 0 0 0 1009.9 - 0.0
27/11:00pm 22.7 26.3 19.7 83 1.9 CALM 0 6 0 3 1009.9 - 0.0
27/10:30pm 24.0 25.9 19.7 77 2.8 NE 9 13 5 7 1009.9 - 0.0
27/10:00pm 24.5 25.4 20.0 76 2.9 NE 15 19 8 10 1009.9 - 0.0
27/09:30pm 24.5 25.0 20.0 76 2.9 NE 17 20 9 11 1009.6 - 0.0
27/09:00pm 24.6 25.5 20.1 76 2.9 ENE 15 19 8 10 1009.7 1009.7 0.0
27/08:30pm 24.6 25.4 19.9 75 3.0 NE 15 17 8 9 1009.7 - 0.0
27/08:00pm 24.7 25.6 20.0 75 3.0 NE 15 20 8 11 1009.3 - 0.0
27/07:30pm 24.6 25.0 19.9 75 3.0 NE 17 20 9 11 1008.8 - 0.0
27/07:00pm 24.7 25.7 20.2 76 2.9 NE 15 20 8 11 1008.5 - 0.0
27/06:30pm 24.8 25.7 20.1 75 3.0 NE 15 20 8 11 1008.3 - 0.0
27/06:00pm 25.4 26.0 20.2 73 3.4 NE 17 22 9 12 1007.8 1007.8 0.0
27/05:30pm 25.8 26.9 20.4 72 3.5 ENE 15 19 8 10 1007.8 - 0.0
27/05:00pm 26.5 27.3 20.6 70 3.9 ENE 17 20 9 11 1007.3 - 0.0
27/04:30pm 26.3 27.1 20.6 71 3.7 E 17 20 9 11 1006.9 - 0.0
27/04:00pm 26.4 27.0 20.3 69 4.0 ENE 17 20 9 11 1007.1 - 0.0
27/03:30pm 26.6 27.2 20.2 68 4.2 ENE 17 22 9 12 1007.0 - 0.0
27/03:00pm 28.5 29.5 21.8 67 4.5 ENE 19 22 10 12 1007.0 1007.0 0.0
27/02:30pm 28.0 28.6 21.1 66 4.6 ENE 19 22 10 12 1007.1 - 0.0
27/02:00pm 28.0 28.5 20.0 61 5.2 ENE 17 24 9 13 1007.3 - 0.0
27/01:30pm 29.0 30.5 22.0 66 4.7 ENE 17 20 9 11 1007.5 - 0.0
27/01:00pm 28.5 29.2 20.5 62 5.3 ENE 17 20 9 11 1007.9 - 0.0
27/12:30pm 27.7 28.9 19.8 62 5.1 ENE 13 17 7 9 1008.1 - 0.0
27/12:00pm 27.8 28.7 20.1 63 5.0 ENE 15 19 8 10 1008.4 1008.4 0.0
27/11:30am 27.4 28.7 19.2 61 5.3 ENE 11 15 6 8 1008.5 - 0.0
27/11:00am 27.2 29.0 21.2 69 4.0 ENE 13 15 7 8 1008.5 - 0.0
27/10:30am 26.0 28.8 20.8 73 3.4 NNW 7 11 4 6 1008.9 - 0.0
27/10:00am 25.3 28.5 23.0 87 1.6 WNW 11 20 6 11 1009.1 - 0.0
27/09:30am 23.1 25.7 21.2 89 1.2 W 9 15 5 8 1009.2 - 0.0
27/09:00am 22.1 22.6 20.9 93 0.8 W 19 22 10 12 1009.3 1009.3 1.4
27/08:30am 21.9 23.1 20.7 93 0.8 N 15 19 8 10 1008.8 - 1.4
27/08:00am 22.1 24.1 20.7 92 0.9 WSW 11 15 6 8 1010.4 - 0.4
27/07:30am 22.3 24.3 20.8 91 1.0 SW 11 13 6 7 1010.6 - 0.2
27/07:00am 22.4 25.3 20.7 90 1.1 SW 6 11 3 6 1010.2 - 0.0
27/06:30am 22.1 24.0 20.6 91 1.0 WSW 11 13 6 7 1010.1 - 0.0
27/06:00am 22.0 23.9 20.6 92 0.9 SW 11 13 6 7 1009.5 1009.5 0.0
27/05:30am 21.7 23.2 20.5 93 0.8 SW 13 15 7 8 1009.0 - 0.0
27/05:00am 21.5 24.0 20.3 93 0.8 SW 7 9 4 5 1007.8 - 0.0
27/04:30am 21.6 25.0 20.2 92 0.9 SW 2 7 1 4 1007.4 - 0.0
27/04:00am 21.7 24.5 20.5 93 0.8 WSW 6 7 3 4 1007.6 - 0.0
27/03:30am 21.4 24.0 20.0 92 0.9 W 6 7 3 4 1007.4 - 0.0
27/03:00am 21.5 24.9 20.1 92 0.9 WSW 2 11 1 6 1007.4 1007.4 0.0
27/02:30am 21.8 24.6 20.4 92 0.9 WSW 6 9 3 5 1007.7 - 0.0
27/02:00am 22.0 24.8 20.5 91 1.0 WSW 6 11 3 6 1007.6 - 0.0
27/01:30am 21.9 23.7 19.6 87 1.5 WNW 9 11 5 6 1007.3 - 0.0
27/01:00am 24.1 25.7 20.0 78 2.6 ENE 11 15 6 8 1007.6 - 0.0
27/12:30am 24.1 25.2 19.6 76 2.9 ENE 13 19 7 10 1007.8 - 0.0
27/12:00am 24.1 24.8 19.6 76 2.9 ENE 15 19 8 10 1008.2 1008.2 0.0
 
Date/Time
EST
Temp
°C
App
Temp
°C
Dew
Point
Rel
Hum
%
Delta-T
°C
Wind Press
QNH
hPa
Press
MSL
hPa
Rain
since 9 am
mm
Dir
 
Spd
km/h
Gust
km/h
Spd
kts
Gust
kts
26/11:30pm 24.0 25.2 19.9 78 2.6 ENE 13 17 7 9 1008.5 - 0.0
26/11:00pm 24.0 26.5 20.3 80 2.4 NNE 7 11 4 6 1008.9 - 0.0
26/10:30pm 24.2 25.4 19.9 77 2.8 ENE 13 15 7 8 1008.8 - 0.0
26/10:00pm 24.3 25.5 20.0 77 2.8 ENE 13 17 7 9 1008.8 - 0.0
26/09:30pm 24.6 26.0 20.3 77 2.8 E 13 17 7 9 1008.9 - 0.0
26/09:00pm 24.7 25.9 20.0 75 3.0 E 13 17 7 9 1008.9 1008.9 0.0
26/08:30pm 24.8 26.2 20.3 76 2.9 E 13 17 7 9 1008.8 - 0.0
26/08:00pm 24.8 26.0 19.8 74 3.2 E 13 20 7 11 1008.8 - 0.0
26/07:30pm 24.9 25.7 19.9 74 3.2 E 15 20 8 11 1008.5 - 0.0
26/07:00pm 25.1 26.0 20.1 74 3.2 E 15 22 8 12 1008.2 - 0.0
26/06:30pm 25.1 26.3 19.9 73 3.4 E 13 17 7 9 1008.1 - 0.0
26/06:00pm 25.3 26.1 19.9 72 3.5 E 15 20 8 11 1007.7 1007.7 0.0
26/05:30pm 25.9 26.6 20.5 72 3.5 E 17 22 9 12 1007.3 - 0.0
26/05:00pm 26.7 27.4 20.5 69 4.1 E 17 20 9 11 1007.2 - 0.0
26/04:30pm 27.2 27.7 20.0 64 4.7 E 17 22 9 12 1007.0 - 0.0
26/04:00pm 27.0 27.2 19.4 63 4.9 E 17 22 9 12 1007.1 - 0.0
26/03:30pm 27.4 27.4 19.7 63 5.0 E 19 22 10 12 1007.1 - 0.0
26/03:00pm 28.0 28.1 19.2 58 5.7 ESE 17 24 9 13 1007.2 1007.2 0.0
26/02:30pm 27.9 27.7 19.4 60 5.5 ESE 19 24 10 13 1007.4 - 0.0
26/02:00pm 28.3 28.6 20.3 62 5.3 ESE 19 24 10 13 1007.9 - 0.0
26/01:30pm 27.6 28.0 19.9 63 5.0 ESE 17 22 9 12 1008.2 - 0.0
26/01:00pm 28.3 28.9 21.3 65 4.7 ESE 20 24 11 13 1008.6 - 0.0
26/12:30pm 28.1 28.6 21.1 65 4.6 ESE 20 24 11 13 1009.0 - 0.0
26/12:00pm 28.0 28.2 20.6 64 4.9 ESE 20 26 11 14 1009.1 1009.1 0.0
26/11:30am 27.9 28.3 20.7 65 4.8 SE 19 24 10 13 1009.3 - 0.0
26/11:00am 27.7 28.1 21.0 67 4.4 SE 20 24 11 13 1009.5 - 0.0
26/10:30am 28.1 28.7 21.1 65 4.6 SE 19 24 10 13 1009.7 - 0.0
26/10:00am 27.8 28.2 20.6 65 4.7 SSE 19 22 10 12 1009.8 - 0.0
26/09:30am 26.8 27.7 20.9 70 3.9 S 17 22 9 12 1009.9 - 0.0
26/09:00am 27.2 28.8 21.5 71 3.8 S 15 20 8 11 1009.9 1009.9 10.8
26/08:30am 24.8 25.3 20.1 75 3.0 S 17 22 9 12 1009.9 - 10.8
26/08:00am 24.6 25.3 20.5 78 2.7 S 17 20 9 11 1009.6 - 10.8
26/07:30am 24.5 25.7 20.6 79 2.5 SSW 15 20 8 11 1009.5 - 10.8
26/07:00am 22.7 24.1 20.4 87 1.5 S 13 17 7 9 1009.2 - 10.8
26/06:30am 21.8 23.6 20.3 91 1.0 S 11 13 6 7 1009.0 - 10.8
26/06:00am 20.9 22.8 19.7 93 0.8 SW 9 11 5 6 1008.8 1008.8 10.8
26/05:30am 20.8 22.3 19.8 94 0.6 SW 11 13 6 7 1008.6 - 10.8
26/05:00am 20.7 22.5 19.5 93 0.8 WSW 9 11 5 6 1008.5 - 10.8
26/04:30am 20.7 22.8 19.4 92 0.8 SW 7 9 4 5 1008.3 - 10.8
26/04:00am 21.1 23.0 19.7 92 0.9 SW 9 11 5 6 1008.5 - 10.8
26/03:30am 21.3 23.3 19.9 92 0.9 SW 9 15 5 8 1008.6 - 10.8
26/03:00am 21.5 23.2 20.1 92 0.9 SW 11 13 6 7 1008.8 1008.8 10.8
26/02:30am 21.4 23.4 20.0 92 0.9 SW 9 11 5 6 1009.0 - 10.8
26/02:00am 21.6 23.2 19.9 90 1.1 SSW 11 13 6 7 1009.3 - 10.8
26/01:30am 21.5 23.6 20.1 92 0.9 SW 9 13 5 7 1009.8 - 10.8
26/01:00am 21.4 23.4 19.9 91 1.0 SW 9 11 5 6 1009.9 - 10.8
26/12:30am 21.7 23.2 19.8 89 1.2 WSW 11 11 6 6 1010.2 - 10.8
26/12:00am 22.9 24.8 19.7 82 2.1 SSW 9 11 5 6 1010.8 1010.8 10.8
 
Date/Time
EST
Temp
°C
App
Temp
°C
Dew
Point
Rel
Hum
%
Delta-T
°C
Wind Press
QNH
hPa
Press
MSL
hPa
Rain
since 9 am
mm
Dir
 
Spd
km/h
Gust
km/h
Spd
kts
Gust
kts
25/11:30pm 24.0 24.4 19.9 78 2.6 SE 17 24 9 13 1010.9 - 10.8
25/11:00pm 24.5 24.5 19.8 75 3.0 SE 19 24 10 13 1010.9 - 10.8
25/10:30pm 24.5 24.5 19.8 75 3.0 SE 19 24 10 13 1011.1 - 10.8
25/10:00pm 24.3 24.2 20.0 77 2.8 SSE 20 30 11 16 1011.2 - 10.8
25/09:30pm 24.6 24.6 20.1 76 2.9 SE 20 30 11 16 1011.4 - 10.8
25/09:00pm 24.8 24.5 20.3 76 2.9 SE 22 30 12 16 1011.4 1011.4 10.8
25/08:30pm 24.7 25.1 20.6 78 2.7 SSE 19 26 10 14 1011.3 - 10.8
25/08:00pm 24.7 24.8 20.4 77 2.8 SE 20 28 11 15 1011.0 - 10.8
25/07:30pm 24.7 24.4 20.4 77 2.8 SE 22 32 12 17 1010.6 - 10.8
25/07:00pm 24.7 24.4 20.4 77 2.8 SE 22 30 12 16 1010.3 - 10.8
25/06:30pm 24.8 24.9 20.3 76 2.9 SE 20 28 11 15 1010.1 - 10.8
25/06:00pm 24.8 24.6 20.5 77 2.8 SSE 22 30 12 16 1010.0 1010.0 10.8
25/05:30pm 25.5 25.1 21.0 76 3.0 SE 24 32 13 17 1009.7 - 10.8
25/05:00pm 26.3 25.7 20.6 71 3.7 SE 24 32 13 17 1009.4 - 10.8
25/04:30pm 26.8 27.1 21.5 72 3.5 SE 22 32 12 17 1009.3 - 10.8
25/04:00pm 27.0 26.5 20.8 69 4.1 ESE 24 32 13 17 1009.6 - 10.8
25/03:30pm 27.2 26.8 21.0 69 4.1 SE 24 33 13 18 1009.7 - 10.8

Other Formats:

Comma delimited format used in spreadsheet applications
http://www.bom.gov.au/fwo/IDQ60801/IDQ60801.94569.axf

JavaScript Object Notation format (JSON) in row-major order
http://www.bom.gov.au/fwo/IDQ60801/IDQ60801.94569.json